Time;durP1;ratioP1;P1;durP2;ratioP2;P2;SDS_P1;SDS_P2;PMS_P1;PMS_P2;Temp;Humidity;BMP_temperature;BMP_pressure;BME280_temperature;BME280_humidity;BME280_pressure;Samples;Min_cycle;Max_cycle;Signal;HPM_P1;HPM_P2
2022/03/24 00:00:56;;;;;;;56.50;50.00;;;;;;;5.07;32.23;98832.66;106450;1271;22555;-78
2022/03/24 00:03:24;;;;;;;59.00;49.50;;;;;;;4.91;32.23;98834.77;106237;1271;22671;-79
2022/03/24 00:05:54;;;;;;;53.80;48.10;;;;;;;4.77;32.38;98836.55;106243;1271;22512;-77
2022/03/24 00:08:22;;;;;;;58.90;50.10;;;;;;;4.67;32.42;98838.20;106561;1271;23212;-78
2022/03/24 00:10:50;;;;;;;56.60;50.90;;;;;;;4.48;32.64;98830.99;106575;1271;25423;-78
2022/03/24 00:13:18;;;;;;;59.50;53.20;;;;;;;4.28;32.93;98830.43;106279;1271;25426;-76
2022/03/24 00:15:45;;;;;;;57.40;48.70;;;;;;;4.14;33.02;98828.80;106281;1271;22601;-79
2022/03/24 00:18:13;;;;;;;53.10;47.40;;;;;;;3.96;34.76;98828.83;106018;1271;22550;-79
2022/03/24 00:20:41;;;;;;;56.60;50.50;;;;;;;3.84;33.93;98825.94;106086;1271;25716;-78
2022/03/24 00:23:09;;;;;;;53.30;47.60;;;;;;;3.76;33.95;98825.65;106223;1271;22534;-76
2022/03/24 00:25:37;;;;;;;61.60;52.10;;;;;;;3.69;34.19;98824.28;106297;1271;25484;-75
2022/03/24 00:28:06;;;;;;;59.90;53.60;;;;;;;3.64;34.39;98826.08;105990;1270;23962;-76
2022/03/24 00:30:34;;;;;;;52.80;47.40;;;;;;;3.58;34.54;98823.05;106155;1271;275913;-78
2022/03/24 00:33:02;;;;;;;55.40;49.80;;;;;;;3.68;34.82;98815.03;106042;1271;22814;-81
2022/03/24 00:35:30;;;;;;;56.60;45.20;;;;;;;3.71;34.36;98820.48;106392;1271;25544;-78
2022/03/24 00:37:59;;;;;;;63.00;48.50;;;;;;;3.64;34.26;98815.58;106389;1271;22643;-77
2022/03/24 00:40:27;;;;;;;55.30;49.40;;;;;;;3.57;34.68;98814.02;106063;1271;22514;-76
2022/03/24 00:42:55;;;;;;;49.70;44.50;;;;;;;3.42;35.46;98814.09;106514;1271;22717;-77
2022/03/24 00:45:25;;;;;;;57.60;47.40;;;;;;;3.29;36.11;98811.64;106439;1271;22558;-76
2022/03/24 00:47:53;;;;;;;52.70;46.80;;;;;;;3.19;37.05;98808.09;106423;1271;24081;-75
2022/03/24 00:50:21;;;;;;;54.10;47.40;;;;;;;3.17;36.05;98804.98;106118;1271;22658;-76
2022/03/24 00:52:49;;;;;;;52.50;46.80;;;;;;;3.17;35.65;98803.52;106320;1268;22682;-76
2022/03/24 00:55:19;;;;;;;55.10;49.50;;;;;;;3.15;35.60;98802.48;106137;1271;25246;-78
2022/03/24 00:57:49;;;;;;;56.70;50.30;;;;;;;3.10;36.08;98803.45;106155;1271;25528;-77
2022/03/24 01:00:20;;;;;;;53.40;47.90;;;;;;;3.05;35.84;98802.83;106323;1271;22630;-77
2022/03/24 01:02:51;;;;;;;55.40;49.30;;;;;;;3.02;35.75;98805.16;106455;1271;22541;-77
2022/03/24 01:05:27;;;;;;;54.70;48.60;;;;;;;2.98;35.53;98802.36;106357;1271;22709;-76
2022/03/24 01:07:55;;;;;;;56.40;50.50;;;;;;;2.86;36.04;98804.17;106286;1271;22546;-77
2022/03/24 01:10:24;;;;;;;59.70;51.60;;;;;;;2.79;36.23;98804.94;106123;1271;22655;-76
2022/03/24 01:12:52;;;;;;;56.50;50.10;;;;;;;2.76;35.98;98805.17;106197;1271;22574;-79
2022/03/24 01:15:22;;;;;;;57.00;51.00;;;;;;;2.73;36.18;98803.67;106491;1270;24212;-78
2022/03/24 01:17:50;;;;;;;54.30;48.60;;;;;;;2.70;36.29;98806.19;106085;1271;22761;-78
2022/03/24 01:20:19;;;;;;;60.50;54.20;;;;;;;2.55;36.45;98809.49;106070;1271;23123;-78
2022/03/24 01:22:46;;;;;;;54.90;49.20;;;;;;;2.48;37.10;98806.87;105989;1271;23041;-80
2022/03/24 01:25:16;;;;;;;65.10;58.30;;;;;;;2.42;37.12;98805.80;106055;1274;25154;-81
2022/03/24 01:27:44;;;;;;;66.90;59.90;;;;;;;2.35;37.11;98809.57;106089;1271;25531;-78
2022/03/24 01:30:13;;;;;;;69.80;55.90;;;;;;;2.23;36.83;98803.20;106276;1271;22671;-77
2022/03/24 01:32:41;;;;;;;62.30;55.90;;;;;;;2.26;36.96;98803.95;106005;1271;25372;-76
2022/03/24 01:35:10;;;;;;;155.20;105.70;;;;;;;2.28;37.09;98801.10;106100;1271;22541;-76
2022/03/24 01:37:39;;;;;;;82.00;72.00;;;;;;;2.28;37.21;98793.33;106123;1271;24220;-77
2022/03/24 01:40:09;;;;;;;71.10;63.30;;;;;;;2.30;37.14;98790.73;106015;1271;25423;-77
2022/03/24 01:42:39;;;;;;;70.90;60.70;;;;;;;2.32;37.07;98790.13;106150;1271;22614;-77
2022/03/24 01:45:09;;;;;;;64.50;55.90;;;;;;;2.31;37.29;98790.60;106081;1271;24232;-77
2022/03/24 01:47:37;;;;;;;63.90;56.80;;;;;;;2.29;37.14;98790.04;105992;1271;22551;-76
2022/03/24 01:50:07;;;;;;;61.00;54.90;;;;;;;2.22;37.28;98789.22;105966;1274;22690;-77
2022/03/24 01:52:35;;;;;;;66.80;59.90;;;;;;;2.16;37.30;98791.18;105985;1271;23256;-77
2022/03/24 01:55:06;;;;;;;60.50;54.50;;;;;;;2.09;37.21;98793.91;106055;1270;24438;-77
2022/03/24 01:57:37;;;;;;;61.60;53.80;;;;;;;2.02;37.66;98794.23;106032;1272;25425;-76
2022/03/24 02:00:07;;;;;;;60.20;51.00;;;;;;;1.89;38.36;98795.68;106073;1271;24112;-77
2022/03/24 02:02:45;;;;;;;72.50;64.80;;;;;;;1.80;38.45;98790.83;106435;1271;25474;-78
2022/03/24 02:05:13;;;;;;;61.40;53.80;;;;;;;1.78;38.26;98787.89;106384;1274;22624;-78
2022/03/24 02:07:42;;;;;;;58.30;52.10;;;;;;;1.80;38.17;98788.13;105974;1271;22753;-77
2022/03/24 02:10:11;;;;;;;63.60;57.10;;;;;;;1.78;38.02;98786.02;106098;1271;22610;-78
2022/03/24 02:12:42;;;;;;;60.70;54.30;;;;;;;1.75;38.28;98784.13;106119;1271;22547;-77
2022/03/24 02:15:11;;;;;;;60.60;54.30;;;;;;;1.76;38.53;98783.25;106165;1271;22538;-78
2022/03/24 02:17:41;;;;;;;71.50;55.80;;;;;;;1.79;38.64;98784.45;106259;1271;22848;-77
2022/03/24 02:20:09;;;;;;;62.90;56.60;;;;;;;1.84;38.71;98780.45;106111;1271;24231;-78
2022/03/24 02:22:38;;;;;;;59.10;52.80;;;;;;;1.87;38.82;98782.25;106012;1271;22772;-78
2022/03/24 02:25:07;;;;;;;58.10;52.20;;;;;;;1.85;38.58;98782.46;106181;1271;22750;-77
2022/03/24 02:27:36;;;;;;;58.60;52.60;;;;;;;1.74;38.66;98785.90;106174;1271;22541;-79
2022/03/24 02:30:06;;;;;;;57.40;51.30;;;;;;;1.62;39.11;98784.26;106165;1271;25506;-78
2022/03/24 02:32:34;;;;;;;62.90;56.20;;;;;;;1.50;39.04;98782.15;106071;1271;24389;-77
2022/03/24 02:35:03;;;;;;;60.30;54.10;;;;;;;1.42;39.18;98779.93;106174;1271;22660;-77
2022/03/24 02:37:30;;;;;;;58.30;52.30;;;;;;;1.35;39.42;98783.52;106117;1271;22549;-76
2022/03/24 02:39:59;;;;;;;65.20;58.70;;;;;;;1.19;39.39;98785.31;106152;1271;26640;-76
2022/03/24 02:42:30;;;;;;;78.60;70.30;;;;;;;1.07;40.02;98795.16;106157;1271;24272;-76
2022/03/24 02:45:05;;;;;;;65.80;59.10;;;;;;;1.00;40.19;98800.10;106207;1271;24233;-77
2022/03/24 02:47:33;;;;;;;98.20;80.80;;;;;;;0.90;40.11;98801.02;106457;1271;22571;-78
2022/03/24 02:50:02;;;;;;;65.30;56.90;;;;;;;0.84;40.25;98802.09;106216;1271;25420;-77
2022/03/24 02:52:29;;;;;;;62.90;56.40;;;;;;;0.78;40.30;98805.91;106370;1271;22709;-78
2022/03/24 02:54:57;;;;;;;58.10;52.60;;;;;;;0.72;40.51;98811.27;106255;1271;22550;-78
2022/03/24 02:57:25;;;;;;;58.20;52.10;;;;;;;0.63;40.68;98808.73;106240;1271;22544;-77
2022/03/24 02:59:53;;;;;;;57.10;51.30;;;;;;;0.51;40.31;98817.60;106236;1271;24276;-76
2022/03/24 03:02:21;;;;;;;55.30;49.70;;;;;;;0.39;41.09;98816.02;106250;1271;22544;-77
2022/03/24 03:04:53;;;;;;;58.40;52.80;;;;;;;0.39;41.43;98822.67;106237;1271;25389;-77
2022/03/24 03:07:22;;;;;;;58.80;52.80;;;;;;;0.46;41.90;98832.48;106173;1271;25435;-76
2022/03/24 03:09:50;;;;;;;58.40;52.30;;;;;;;0.51;41.75;98835.11;106256;1271;22560;-77
2022/03/24 03:12:19;;;;;;;54.30;48.80;;;;;;;0.57;41.84;98836.14;106223;1271;24117;-77
2022/03/24 03:14:47;;;;;;;59.90;53.70;;;;;;;0.68;41.65;98831.35;106246;1271;24914;-76
2022/03/24 03:17:15;;;;;;;64.50;54.30;;;;;;;0.72;41.56;98832.48;106351;1271;22750;-76
2022/03/24 03:19:45;;;;;;;58.00;52.50;;;;;;;0.71;42.11;98835.21;106163;1271;22611;-77
2022/03/24 03:22:15;;;;;;;61.40;55.10;;;;;;;0.69;42.26;98837.59;106328;1271;22871;-78
2022/03/24 03:24:43;;;;;;;60.50;54.50;;;;;;;0.67;42.87;98839.15;106410;1271;25400;-78
2022/03/24 03:27:12;;;;;;;58.90;53.20;;;;;;;0.67;42.52;98837.19;106255;1271;22685;-77
2022/03/24 03:29:42;;;;;;;56.60;51.10;;;;;;;0.67;42.27;98836.83;106297;1271;22611;-77
2022/03/24 03:32:11;;;;;;;60.20;53.90;;;;;;;0.70;42.37;98831.87;106362;1271;24075;-77
2022/03/24 03:34:41;;;;;;;64.30;57.40;;;;;;;0.71;42.11;98833.05;106266;1271;24335;-78
2022/03/24 03:37:11;;;;;;;61.20;55.20;;;;;;;0.67;42.23;98838.42;106338;1271;25362;-77
2022/03/24 03:39:41;;;;;;;61.90;55.60;;;;;;;0.61;42.31;98835.39;106259;1271;22607;-76
2022/03/24 03:42:09;;;;;;;60.10;54.20;;;;;;;0.59;42.53;98836.55;106085;1271;25406;-78
2022/03/24 03:44:37;;;;;;;58.40;53.00;;;;;;;0.56;42.86;98833.33;106234;1271;22688;-77
2022/03/24 03:47:06;;;;;;;69.10;60.50;;;;;;;0.52;42.80;98835.71;106198;1271;22725;-77
2022/03/24 03:49:36;;;;;;;62.30;56.30;;;;;;;0.51;42.73;98834.58;106307;1271;24382;-77
2022/03/24 03:52:24;;;;;;;60.80;54.50;;;;;;;0.49;42.89;98837.00;106110;1271;25361;-77
2022/03/24 03:54:52;;;;;;;56.90;51.50;;;;;;;0.44;42.86;98840.06;106271;1271;25312;-77
2022/03/24 03:57:20;;;;;;;60.10;53.90;;;;;;;0.41;43.19;98842.73;106244;1271;24225;-77
2022/03/24 03:59:48;;;;;;;58.90;53.10;;;;;;;0.40;43.83;98840.84;106101;1271;22550;-77
2022/03/24 04:02:16;;;;;;;56.70;51.30;;;;;;;0.47;43.62;98843.16;106226;1271;22553;-76
2022/03/24 04:04:44;;;;;;;60.00;54.30;;;;;;;0.46;43.16;98847.48;106565;1271;22594;-77
2022/03/24 04:07:12;;;;;;;56.80;51.10;;;;;;;0.38;44.98;98848.13;106503;1271;23062;-77
2022/03/24 04:09:40;;;;;;;55.50;49.90;;;;;;;0.36;44.52;98853.23;106848;1271;24234;-76
2022/03/24 04:12:08;;;;;;;60.00;54.40;;;;;;;0.42;44.64;98851.41;106987;1271;22566;-77
2022/03/24 04:14:36;;;;;;;63.90;55.30;;;;;;;0.50;44.28;98855.60;106730;1271;24393;-77
2022/03/24 04:17:04;;;;;;;61.90;55.80;;;;;;;0.55;44.12;98859.15;106314;1271;24253;-78
2022/03/24 04:19:32;;;;;;;62.50;56.50;;;;;;;0.55;43.87;98861.33;106246;1271;22555;-76
2022/03/24 04:22:51;;;;;;;63.50;57.00;;;;;;;0.57;43.83;98859.77;106484;1271;24288;-77
2022/03/24 04:25:22;;;;;;;63.30;56.70;;;;;;;0.57;43.85;98856.14;106299;1271;24352;-79
2022/03/24 04:27:51;;;;;;;66.10;59.20;;;;;;;0.61;43.93;98858.49;106225;1271;24446;-77
2022/03/24 04:30:18;;;;;;;62.60;56.60;;;;;;;0.62;43.83;98863.83;106137;1271;24117;-76
2022/03/24 04:32:48;;;;;;;64.60;58.10;;;;;;;0.61;43.84;98864.27;106159;1271;23342;-77
2022/03/24 04:35:16;;;;;;;63.50;57.00;;;;;;;0.62;44.13;98864.45;106253;1271;25308;-77
2022/03/24 04:37:44;;;;;;;61.60;55.40;;;;;;;0.64;44.10;98865.80;106217;1271;22547;-77
2022/03/24 04:40:16;;;;;;;62.00;55.80;;;;;;;0.65;44.03;98865.73;106154;1271;25661;-76
2022/03/24 04:42:45;;;;;;;65.70;59.30;;;;;;;0.53;44.96;98869.70;106065;1271;23662;-77
2022/03/24 04:45:14;;;;;;;58.50;52.60;;;;;;;0.45;45.77;98869.36;106146;1270;22546;-76
2022/03/24 04:47:42;;;;;;;57.40;51.80;;;;;;;0.54;45.75;98871.13;106147;1271;22563;-76
2022/03/24 04:50:12;;;;;;;64.40;58.10;;;;;;;0.61;45.28;98876.63;105982;1271;22611;-77
2022/03/24 04:52:40;;;;;;;62.00;55.60;;;;;;;0.62;45.01;98878.02;106168;1271;23097;-76
2022/03/24 04:55:08;;;;;;;79.80;71.80;;;;;;;0.57;44.93;98875.15;106172;1271;22593;-76
2022/03/24 04:57:36;;;;;;;70.20;63.10;;;;;;;0.54;44.87;98880.17;106191;1271;22639;-78
2022/03/24 05:00:06;;;;;;;73.00;65.70;;;;;;;0.51;44.89;98882.23;106422;1271;24112;-79
2022/03/24 05:02:34;;;;;;;81.90;73.90;;;;;;;0.47;45.07;98884.48;106499;1271;25455;-77
2022/03/24 05:05:02;;;;;;;84.80;72.70;;;;;;;0.44;45.17;98886.44;106414;1271;22544;-77
2022/03/24 05:07:30;;;;;;;93.60;78.40;;;;;;;0.50;45.41;98885.05;106427;1271;25502;-76
2022/03/24 05:09:59;;;;;;;74.00;66.60;;;;;;;0.62;45.50;98881.86;106460;1271;22535;-77
2022/03/24 05:12:27;;;;;;;77.30;69.50;;;;;;;0.72;45.56;98882.32;106436;1268;22720;-77
2022/03/24 05:14:55;;;;;;;79.80;72.20;;;;;;;0.77;45.26;98885.14;106202;1271;22544;-76
2022/03/24 05:17:23;;;;;;;119.80;101.90;;;;;;;0.81;45.39;98886.07;105976;1269;25372;-75
2022/03/24 05:19:52;;;;;;;97.20;85.70;;;;;;;0.87;45.59;98882.98;106243;1271;25362;-78
2022/03/24 05:22:20;;;;;;;73.80;66.90;;;;;;;0.98;45.59;98878.92;106408;1271;25452;-77
2022/03/24 05:24:48;;;;;;;71.20;64.20;;;;;;;1.09;45.52;98882.13;105977;1272;22559;-76
2022/03/24 05:27:16;;;;;;;71.30;64.30;;;;;;;1.19;45.88;98886.40;106182;1271;24312;-76
2022/03/24 05:29:44;;;;;;;154.20;88.80;;;;;;;1.26;46.14;98886.96;105960;1271;25254;-76
2022/03/24 05:32:12;;;;;;;67.30;60.10;;;;;;;1.34;45.92;98886.06;106238;1271;22687;-75
2022/03/24 05:34:40;;;;;;;60.20;53.80;;;;;;;1.43;45.74;98884.29;106221;1271;26635;-76
2022/03/24 05:37:08;;;;;;;62.10;55.00;;;;;;;1.56;45.63;98888.30;105972;1271;25456;-76
2022/03/24 05:39:36;;;;;;;60.10;54.00;;;;;;;1.71;46.28;98889.05;106251;1271;24107;-76
2022/03/24 05:42:04;;;;;;;57.90;52.20;;;;;;;1.85;47.28;98894.70;105986;1271;22611;-76
2022/03/24 05:44:32;;;;;;;60.20;54.10;;;;;;;1.99;47.33;98898.13;105981;1271;22554;-76
2022/03/24 05:47:00;;;;;;;56.20;50.80;;;;;;;2.15;46.49;98896.98;106185;1271;22547;-76
2022/03/24 05:49:28;;;;;;;56.70;51.20;;;;;;;2.30;45.81;98900.70;106003;1271;22614;-76
2022/03/24 05:51:55;;;;;;;60.40;54.60;;;;;;;2.43;45.67;98903.23;105961;1271;24230;-76
2022/03/24 05:54:23;;;;;;;57.60;51.90;;;;;;;2.55;45.41;98905.56;106208;1271;22537;-76
2022/03/24 05:56:51;;;;;;;61.90;55.60;;;;;;;2.68;45.50;98903.69;106369;1271;24253;-76
2022/03/24 05:59:19;;;;;;;69.80;62.10;;;;;;;2.82;45.50;98904.55;106234;1271;22545;-75
2022/03/24 06:01:47;;;;;;;83.70;59.80;;;;;;;2.96;45.35;98910.96;105997;1271;22553;-76
2022/03/24 06:04:18;;;;;;;62.90;54.20;;;;;;;3.09;45.11;98912.39;106005;1271;25420;-76
2022/03/24 06:06:47;;;;;;;61.80;55.80;;;;;;;3.20;45.21;98915.20;106036;1271;22556;-77
2022/03/24 06:09:15;;;;;;;56.70;51.40;;;;;;;3.32;45.09;98919.34;106414;1271;22525;-76
2022/03/24 06:11:43;;;;;;;57.80;52.00;;;;;;;3.44;44.98;98922.52;106390;1271;22606;-76
2022/03/24 06:14:12;;;;;;;59.50;53.40;;;;;;;3.56;45.06;98921.04;106103;1271;22532;-77
2022/03/24 06:16:41;;;;;;;63.20;56.80;;;;;;;3.72;45.14;98922.16;106516;1271;22539;-77
2022/03/24 06:19:09;;;;;;;90.80;57.40;;;;;;;3.87;45.20;98919.48;106303;1271;22543;-77
2022/03/24 06:21:38;;;;;;;174.90;63.40;;;;;;;4.05;45.14;98922.67;106310;1271;22713;-80
2022/03/24 06:24:07;;;;;;;123.70;75.60;;;;;;;4.21;45.17;98923.48;105990;1271;22701;-76
2022/03/24 06:26:37;;;;;;;128.60;80.30;;;;;;;4.37;45.27;98925.70;105948;1271;22794;-76
2022/03/24 06:29:05;;;;;;;112.50;79.50;;;;;;;4.50;45.07;98928.25;106148;1271;22698;-77
2022/03/24 06:31:33;;;;;;;87.80;71.00;;;;;;;4.64;45.05;98929.89;105947;1271;24214;-77
2022/03/24 06:34:01;;;;;;;75.80;67.80;;;;;;;4.76;44.80;98931.30;106053;1271;22839;-78
2022/03/24 06:36:33;;;;;;;75.10;67.30;;;;;;;4.89;44.95;98933.66;106473;1271;22530;-79
2022/03/24 06:39:02;;;;;;;108.70;67.80;;;;;;;5.01;45.12;98936.45;106349;1271;22602;-79
2022/03/24 06:41:29;;;;;;;142.70;73.70;;;;;;;5.11;44.91;98935.52;106179;1271;22555;-78
2022/03/24 06:43:59;;;;;;;138.70;76.60;;;;;;;5.25;45.01;98934.36;106471;1271;24234;-78
2022/03/24 06:46:28;;;;;;;162.70;86.60;;;;;;;5.37;44.98;98935.97;106229;1271;22603;-79
2022/03/24 06:48:56;;;;;;;159.60;89.40;;;;;;;5.49;44.53;98938.73;106292;1271;25390;-77
2022/03/24 06:51:23;;;;;;;129.00;78.70;;;;;;;5.60;44.70;98937.83;106366;1271;25476;-77
2022/03/24 06:53:51;;;;;;;118.10;72.40;;;;;;;5.71;44.52;98938.06;106408;1271;22667;-76
2022/03/24 06:56:19;;;;;;;89.00;67.20;;;;;;;5.82;44.41;98936.88;106345;1271;25481;-77
2022/03/24 06:58:50;;;;;;;81.20;64.70;;;;;;;5.94;44.39;98934.52;106292;1271;22544;-77
2022/03/24 07:01:18;;;;;;;86.00;66.90;;;;;;;6.07;44.47;98941.52;106272;1271;24243;-77
2022/03/24 07:03:47;;;;;;;91.60;70.40;;;;;;;6.20;44.45;98941.09;106028;1271;22604;-76
2022/03/24 07:06:15;;;;;;;112.20;74.70;;;;;;;6.33;44.38;98939.95;105973;1271;22694;-77
2022/03/24 07:08:43;;;;;;;118.00;73.60;;;;;;;6.46;44.29;98942.85;106340;1271;22755;-77
2022/03/24 07:11:11;;;;;;;98.80;69.10;;;;;;;6.60;44.20;98946.15;106285;1271;22550;-77
2022/03/24 07:13:39;;;;;;;78.70;65.50;;;;;;;6.74;44.23;98944.70;106011;1271;22598;-77
2022/03/24 07:16:09;;;;;;;71.50;58.80;;;;;;;6.90;44.04;98943.72;105924;1271;22567;-77
2022/03/24 07:18:37;;;;;;;55.60;49.40;;;;;;;7.06;44.07;98941.98;106225;1271;25480;-78
2022/03/24 07:21:06;;;;;;;54.50;49.00;;;;;;;7.23;43.97;98943.41;106192;1274;22707;-76
2022/03/24 07:23:34;;;;;;;108.90;52.00;;;;;;;7.38;43.94;98944.16;106289;1271;22628;-77
2022/03/24 07:26:02;;;;;;;60.70;50.30;;;;;;;7.52;43.76;98940.02;106013;1274;22537;-79
2022/03/24 07:28:30;;;;;;;53.10;47.70;;;;;;;7.65;43.57;98943.79;106222;1274;24233;-76
2022/03/24 07:31:08;;;;;;;56.80;51.20;;;;;;;7.77;43.33;98941.86;106149;1271;24695;-76
2022/03/24 07:33:36;;;;;;;52.30;47.20;;;;;;;7.90;43.35;98947.77;106029;1271;22835;-77
2022/03/24 07:36:04;;;;;;;55.50;48.40;;;;;;;8.00;42.86;98954.41;106245;1274;23958;-76
2022/03/24 07:38:33;;;;;;;77.70;47.70;;;;;;;8.09;43.04;98956.96;106159;1271;24427;-76
2022/03/24 07:41:02;;;;;;;54.20;48.50;;;;;;;8.19;42.84;98960.95;106092;1271;22933;-77
2022/03/24 07:43:30;;;;;;;56.30;50.00;;;;;;;8.27;42.47;98955.10;106220;1271;26645;-77
2022/03/24 07:45:58;;;;;;;52.80;47.30;;;;;;;8.32;42.30;98958.36;106219;1274;22550;-76
2022/03/24 07:48:26;;;;;;;55.60;49.90;;;;;;;8.38;42.65;98958.48;106344;1271;22572;-77
2022/03/24 07:50:57;;;;;;;52.70;47.80;;;;;;;8.45;42.67;98956.23;106382;1271;25250;-78
2022/03/24 07:53:28;;;;;;;55.30;49.70;;;;;;;8.53;42.11;98956.77;106266;1271;22639;-77
2022/03/24 07:55:58;;;;;;;56.40;50.70;;;;;;;8.63;42.42;98957.67;105981;1271;22586;-77
2022/03/24 07:58:27;;;;;;;51.60;46.10;;;;;;;8.75;42.61;98954.14;106006;1271;24233;-77
2022/03/24 08:00:57;;;;;;;55.20;49.60;;;;;;;8.85;42.06;98952.86;106324;1271;25374;-77
2022/03/24 08:03:26;;;;;;;53.00;47.70;;;;;;;8.93;41.78;98950.31;106257;1271;25441;-78
2022/03/24 08:05:55;;;;;;;98.20;46.80;;;;;;;8.98;41.53;98948.89;106292;1271;23844;-77
2022/03/24 08:08:23;;;;;;;53.00;47.30;;;;;;;9.05;41.81;98947.68;106239;1271;22550;-77
2022/03/24 08:10:51;;;;;;;50.70;45.80;;;;;;;9.12;41.62;98953.61;106225;1271;24225;-77
2022/03/24 08:13:21;;;;;;;50.20;45.30;;;;;;;9.22;41.69;98953.50;106162;1271;25397;-77
2022/03/24 08:15:50;;;;;;;52.80;47.60;;;;;;;9.32;41.56;98957.56;106243;1271;22538;-77
2022/03/24 08:18:19;;;;;;;53.20;48.10;;;;;;;9.39;41.33;98959.84;106370;1271;22544;-76
2022/03/24 08:20:47;;;;;;;52.40;47.30;;;;;;;9.45;41.41;98959.22;106233;1271;25375;-77
2022/03/24 08:23:16;;;;;;;52.60;47.60;;;;;;;9.52;41.49;98959.23;106217;1273;25422;-78
2022/03/24 08:25:45;;;;;;;54.00;48.50;;;;;;;9.60;40.99;98958.92;106270;1274;23470;-77
2022/03/24 08:28:13;;;;;;;50.30;45.30;;;;;;;9.68;41.09;98960.17;106222;1271;22532;-77
2022/03/24 08:30:42;;;;;;;48.20;43.50;;;;;;;9.75;41.03;98959.28;106427;1271;22547;-77
2022/03/24 08:33:10;;;;;;;51.10;46.20;;;;;;;9.82;40.84;98959.34;106496;1271;24271;-78
2022/03/24 08:35:46;;;;;;;50.20;45.30;;;;;;;9.90;40.56;98963.27;106481;1271;22540;-78
2022/03/24 08:38:14;;;;;;;49.30;44.90;;;;;;;9.97;40.41;98962.47;106453;1271;23916;-78
2022/03/24 08:40:42;;;;;;;50.70;46.10;;;;;;;10.06;40.29;98967.70;106421;1271;22578;-76
2022/03/24 08:43:10;;;;;;;47.30;42.80;;;;;;;10.16;40.49;98965.88;106238;1271;25327;-77
2022/03/24 08:45:39;;;;;;;50.50;42.70;;;;;;;10.27;39.91;98965.24;105998;1274;22559;-78
2022/03/24 08:48:08;;;;;;;49.40;41.90;;;;;;;10.38;40.27;98965.58;105970;1274;22563;-78
2022/03/24 08:50:36;;;;;;;48.70;44.10;;;;;;;10.48;39.73;98963.20;106273;1271;22608;-78
2022/03/24 08:53:05;;;;;;;51.00;45.50;;;;;;;10.57;39.77;98964.52;106306;1271;22675;-77
2022/03/24 08:55:32;;;;;;;52.90;47.00;;;;;;;10.67;39.92;98962.73;106339;1271;22621;-78
2022/03/24 08:58:00;;;;;;;50.90;45.80;;;;;;;10.80;39.48;98961.02;106366;1271;25264;-77
2022/03/24 09:00:29;;;;;;;52.80;43.40;;;;;;;10.94;39.34;98960.39;106281;1271;22637;-78
2022/03/24 09:02:57;;;;;;;48.00;42.90;;;;;;;11.05;39.08;98959.86;106238;1272;25294;-78
2022/03/24 09:05:25;;;;;;;50.40;45.10;;;;;;;11.15;38.64;98960.04;106415;1271;22897;-78
2022/03/24 09:07:52;;;;;;;47.30;42.60;;;;;;;11.25;38.84;98959.67;106368;1271;22946;-77
2022/03/24 09:10:20;;;;;;;50.10;45.20;;;;;;;11.33;38.69;98956.13;106372;1271;25836;-78
2022/03/24 09:12:48;;;;;;;48.50;43.60;;;;;;;11.39;38.50;98959.06;106334;1271;22599;-77
2022/03/24 09:15:18;;;;;;;69.10;44.20;;;;;;;11.49;38.43;98960.13;106280;1271;25659;-79
2022/03/24 09:17:47;;;;;;;47.10;40.70;;;;;;;11.58;38.28;98961.34;106232;1274;23554;-78
2022/03/24 09:20:18;;;;;;;46.10;41.00;;;;;;;11.65;38.17;98960.43;106219;1271;22537;-78
2022/03/24 09:22:48;;;;;;;60.80;44.40;;;;;;;11.73;37.99;98958.65;106205;1271;24083;-78
2022/03/24 09:25:20;;;;;;;47.20;42.60;;;;;;;11.82;37.85;98958.11;106258;1271;25603;-76
2022/03/24 09:27:48;;;;;;;48.80;44.10;;;;;;;11.92;37.85;98958.02;106256;1271;25373;-78
2022/03/24 09:30:18;;;;;;;45.70;41.30;;;;;;;12.04;37.86;98961.21;106162;1271;23033;-77
2022/03/24 09:32:47;;;;;;;46.10;41.70;;;;;;;12.14;37.50;98957.36;106378;1271;25417;-79
2022/03/24 09:35:16;;;;;;;47.10;42.50;;;;;;;12.20;37.34;98957.79;106340;1271;22624;-77
2022/03/24 09:37:45;;;;;;;49.10;44.50;;;;;;;12.24;37.32;98958.23;106201;1271;22682;-77
2022/03/24 09:40:13;;;;;;;46.80;42.00;;;;;;;12.32;37.34;98959.96;106290;1271;26061;-77
2022/03/24 09:42:42;;;;;;;47.50;43.10;;;;;;;12.38;37.11;98962.38;106189;1271;22609;-78
2022/03/24 09:45:11;;;;;;;45.80;41.60;;;;;;;12.50;36.95;98963.23;106243;1271;24260;-78
2022/03/24 09:47:41;;;;;;;46.80;42.50;;;;;;;12.56;36.73;98962.98;106398;1271;22610;-78
2022/03/24 09:50:11;;;;;;;45.80;41.30;;;;;;;12.68;36.78;98955.77;106139;1271;24259;-78
2022/03/24 09:52:40;;;;;;;48.40;43.90;;;;;;;12.79;36.83;98952.63;106277;1271;25392;-78
2022/03/24 09:55:11;;;;;;;47.30;42.70;;;;;;;12.87;36.53;98952.54;106374;1271;24082;-79
2022/03/24 09:57:43;;;;;;;45.30;41.00;;;;;;;12.97;36.52;98957.45;106236;1271;22636;-78
2022/03/24 10:00:31;;;;;;;48.20;43.80;;;;;;;13.11;36.26;98957.99;106206;1271;22937;-77
2022/03/24 10:03:26;;;;;;;48.10;43.00;;;;;;;13.23;36.34;98960.52;106356;1271;25402;-79
2022/03/24 10:05:58;;;;;;;;;;;;;;;13.43;36.03;98961.58;106250;1271;22546;-77
2022/03/24 10:08:28;;;;;;;46.00;41.60;;;;;;;13.54;35.88;98961.20;106361;1271;22847;-78
2022/03/24 10:10:58;;;;;;;88.00;46.40;;;;;;;13.61;35.94;98954.93;106587;1269;24321;-78
2022/03/24 10:13:44;;;;;;;49.00;44.20;;;;;;;13.72;35.78;98961.33;107488;1271;22821;-78
2022/03/24 10:16:33;;;;;;;50.20;45.00;;;;;;;13.89;35.96;98961.02;106394;1271;22614;-78
2022/03/24 10:19:05;;;;;;;45.80;41.30;;;;;;;14.06;35.66;98952.59;106051;1271;22718;-78
2022/03/24 10:21:35;;;;;;;46.20;41.00;;;;;;;14.18;35.07;98950.54;106667;1271;22648;-79
2022/03/24 10:24:08;;;;;;;44.30;40.40;;;;;;;14.31;35.34;98953.44;106591;1271;22561;-79
2022/03/24 10:26:40;;;;;;;47.10;42.30;;;;;;;14.46;35.11;98948.45;106266;1271;24275;-79
2022/03/24 10:29:14;;;;;;;46.20;41.60;;;;;;;14.59;35.05;98947.81;106367;1271;22561;-79
2022/03/24 10:31:43;;;;;;;47.80;43.10;;;;;;;14.73;34.62;98939.56;106576;1271;22774;-77
2022/03/24 10:34:12;;;;;;;46.90;42.00;;;;;;;14.87;34.41;98942.94;106531;1271;22559;-78
2022/03/24 10:36:41;;;;;;;46.90;41.30;;;;;;;14.95;34.49;98941.32;106501;1271;24827;-77
2022/03/24 10:39:09;;;;;;;43.00;38.60;;;;;;;15.05;34.47;98941.35;106595;1271;22650;-77
2022/03/24 10:41:39;;;;;;;45.30;40.60;;;;;;;15.15;34.11;98941.30;106531;1271;25334;-78
2022/03/24 10:44:08;;;;;;;43.10;34.00;;;;;;;15.27;33.80;98939.58;106585;1271;25385;-78
2022/03/24 10:46:43;;;;;;;35.60;30.20;;;;;;;15.31;32.49;98937.44;106677;1271;22643;-82
2022/03/24 10:49:20;;;;;;;30.70;27.60;;;;;;;15.19;28.85;98940.19;106649;1271;23178;-79
2022/03/24 10:56:27;;;;;;;28.60;25.80;;;;;;;14.98;31.11;98929.69;106586;1271;25372;-76
2022/03/24 10:59:26;;;;;;;28.60;23.50;;;;;;;14.98;30.25;98929.27;106511;1271;25370;-79
2022/03/24 11:01:54;;;;;;;35.90;22.30;;;;;;;14.76;27.39;98939.30;106543;1271;24275;-79
2022/03/24 11:04:23;;;;;;;25.60;21.30;;;;;;;14.56;28.24;98937.91;106676;1271;22564;-78
2022/03/24 11:07:45;;;;;;;24.50;22.00;;;;;;;14.49;28.49;98933.05;106535;1271;25372;-78
2022/03/24 11:10:18;;;;;;;23.60;21.30;;;;;;;14.59;27.78;98933.21;106646;1271;22711;-78
2022/03/24 11:12:49;;;;;;;24.20;22.00;;;;;;;14.70;28.73;98924.76;106721;1271;24450;-77
2022/03/24 11:15:19;;;;;;;19.30;17.30;;;;;;;14.94;28.95;98924.19;106610;1271;25342;-77
2022/03/24 11:17:48;;;;;;;18.90;16.30;;;;;;;15.11;27.09;98927.52;106523;1271;25323;-77
2022/03/24 11:20:37;;;;;;;16.50;13.60;;;;;;;15.01;21.03;98922.80;106719;1271;22600;-77
2022/03/24 11:23:17;;;;;;;17.50;12.40;;;;;;;14.95;22.91;98924.81;106793;1271;25418;-78
2022/03/24 11:25:45;;;;;;;13.70;11.90;;;;;;;14.79;21.18;98925.28;106760;1271;23643;-78
2022/03/24 11:28:14;;;;;;;17.30;14.40;;;;;;;14.74;22.41;98918.80;106653;1271;22542;-76
2022/03/24 11:30:42;;;;;;;18.30;13.60;;;;;;;14.77;24.04;98914.48;106673;1271;24437;-78